Airfield :
LOGIN :

Register | Disclaimer

   EN    FR    IT 

 










Legend :    VFR   Marginal VFR   IFR   Intensive IFR   Very Intensive IFR
Visi :
Ceiling :
>= 8 km
>= 3000ft
5 to 8 km
1000 to 3000 ft
1500m to 5 km
500 to 1000 ft
800 to 1500m
200 to 500 ft
< 800m
< 200 ft
Symbols :   Thunderstorms  Fog  Heavy snow  Heavy precipitations  Wind > 20 kt
SIGMETs :     Misc.  Thunderstorms  Icing  Turbulence  Mountain Waves  Volcanic Ashes







- Airport Elevation : 86 ft


LERT - Rota Navy

CURRENT METAR :
  • 211600Z 26014KT CAVOK 24/18 Q1014 NOSIG

EXPIRED METARs :
  • 211500Z 26011KT 240V300 CAVOK 24/18 Q1014 NOSIG
  • 211400Z 26011KT 230V290 CAVOK 25/17 Q1014 NOSIG

TAF TAF LERT
Valid from the 21 at 15:00 until the 22 at 00:00 UTC


211400Z 2115/2124 27009KT CAVOK
No reported NOTAMs for that airfield.
1 SIGMET reported for the Madrid FIR (LECM) :
 
Severe turbulence
LECM SIGMET 1 VALID 211529/211730 LEVA
LECM MADRID UIR SEV TURB OBS AT 1529Z WI N41 W00323 - N4151 W00324 - N4155 W00205 - N4057 W00213 - N41 W00323 FL330/370 MOV E 20KT NC=



MET'MAP, your aeronautical weather chart ! - Copyright ORBIFLY December 2007 - Disclaimer

ORBIFLY MET'MAP TEAM :

Programming & Development : Alexandra Zaïnal
Concept & Development : Baudouin d'Aumeries
Co-Development & Prog : Marc-Olivier Méhu
Technical & hardware support : Manuel Goepfert

Contact : metmap@orbifly.com




SOURCES & CREDITS :

   NOAA